sensor_id;sensor_type;location;lat;lon;timestamp;P1;durP1;ratioP1;P2;durP2;ratioP2
9940;SDS011;5009;50.656;7.188;2022-11-20T03:13:40;20.23;;;16.63;;
9940;SDS011;5009;50.656;7.188;2022-11-20T03:16:11;20.17;;;17.13;;
9940;SDS011;5009;50.656;7.188;2022-11-20T03:18:39;20.40;;;17.20;;
9940;SDS011;5009;50.656;7.188;2022-11-20T03:21:05;20.67;;;17.60;;
9940;SDS011;5009;50.656;7.188;2022-11-20T03:23:32;19.57;;;17.10;;
9940;SDS011;5009;50.656;7.188;2022-11-20T03:26:08;21.67;;;17.27;;
9940;SDS011;5009;50.656;7.188;2022-11-20T03:28:33;21.73;;;17.73;;
9940;SDS011;5009;50.656;7.188;2022-11-20T03:31:04;20.10;;;16.60;;
9940;SDS011;5009;50.656;7.188;2022-11-20T03:33:34;20.20;;;17.87;;
9940;SDS011;5009;50.656;7.188;2022-11-20T03:36:03;21.00;;;17.53;;
9940;SDS011;5009;50.656;7.188;2022-11-20T03:38:31;20.70;;;17.83;;
9940;SDS011;5009;50.656;7.188;2022-11-20T03:41:00;19.53;;;16.90;;
9940;SDS011;5009;50.656;7.188;2022-11-20T03:43:26;21.40;;;17.67;;
9940;SDS011;5009;50.656;7.188;2022-11-20T03:45:53;19.37;;;17.33;;
9940;SDS011;5009;50.656;7.188;2022-11-20T03:48:18;21.80;;;18.10;;
9940;SDS011;5009;50.656;7.188;2022-11-20T03:50:44;21.20;;;17.83;;
9940;SDS011;5009;50.656;7.188;2022-11-20T03:53:12;20.70;;;17.23;;
9940;SDS011;5009;50.656;7.188;2022-11-20T03:55:38;20.53;;;17.33;;
9940;SDS011;5009;50.656;7.188;2022-11-20T03:58:04;20.50;;;16.60;;
9940;SDS011;5009;50.656;7.188;2022-11-20T04:00:29;22.33;;;17.60;;
9940;SDS011;5009;50.656;7.188;2022-11-20T04:02:58;22.63;;;17.87;;
9940;SDS011;5009;50.656;7.188;2022-11-20T04:05:24;19.63;;;16.83;;
9940;SDS011;5009;50.656;7.188;2022-11-20T04:07:50;22.77;;;18.60;;
9940;SDS011;5009;50.656;7.188;2022-11-20T04:10:16;20.77;;;16.97;;
9940;SDS011;5009;50.656;7.188;2022-11-20T04:12:42;21.67;;;18.40;;
9940;SDS011;5009;50.656;7.188;2022-11-20T04:15:07;20.57;;;17.53;;
9940;SDS011;5009;50.656;7.188;2022-11-20T04:17:33;23.40;;;18.43;;
9940;SDS011;5009;50.656;7.188;2022-11-20T04:19:59;21.17;;;17.83;;
9940;SDS011;5009;50.656;7.188;2022-11-20T04:22:24;22.17;;;17.87;;
9940;SDS011;5009;50.656;7.188;2022-11-20T04:24:50;19.73;;;16.73;;
9940;SDS011;5009;50.656;7.188;2022-11-20T04:27:15;20.63;;;17.77;;
9940;SDS011;5009;50.656;7.188;2022-11-20T04:29:41;22.47;;;18.10;;
9940;SDS011;5009;50.656;7.188;2022-11-20T04:32:07;21.50;;;17.93;;
9940;SDS011;5009;50.656;7.188;2022-11-20T04:34:32;20.60;;;17.73;;
9940;SDS011;5009;50.656;7.188;2022-11-20T04:36:58;24.10;;;18.67;;
9940;SDS011;5009;50.656;7.188;2022-11-20T04:39:23;22.03;;;18.13;;
9940;SDS011;5009;50.656;7.188;2022-11-20T04:41:49;21.63;;;18.67;;
9940;SDS011;5009;50.656;7.188;2022-11-20T04:44:35;21.67;;;18.30;;
9940;SDS011;5009;50.656;7.188;2022-11-20T04:47:00;22.27;;;18.33;;
9940;SDS011;5009;50.656;7.188;2022-11-20T04:49:26;20.10;;;17.60;;
9940;SDS011;5009;50.656;7.188;2022-11-20T04:51:54;21.90;;;18.77;;
9940;SDS011;5009;50.656;7.188;2022-11-20T04:54:20;23.03;;;18.97;;
9940;SDS011;5009;50.656;7.188;2022-11-20T04:56:49;20.60;;;17.33;;
9940;SDS011;5009;50.656;7.188;2022-11-20T04:59:15;22.80;;;16.70;;
9940;SDS011;5009;50.656;7.188;2022-11-20T05:01:40;21.27;;;17.93;;
9940;SDS011;5009;50.656;7.188;2022-11-20T05:04:06;22.73;;;18.80;;
9940;SDS011;5009;50.656;7.188;2022-11-20T05:06:32;22.00;;;18.43;;
9940;SDS011;5009;50.656;7.188;2022-11-20T05:08:58;25.47;;;19.53;;
9940;SDS011;5009;50.656;7.188;2022-11-20T05:11:23;21.80;;;19.43;;
9940;SDS011;5009;50.656;7.188;2022-11-20T05:13:50;22.17;;;18.83;;
9940;SDS011;5009;50.656;7.188;2022-11-20T05:16:17;23.67;;;19.17;;
9940;SDS011;5009;50.656;7.188;2022-11-20T05:18:47;23.50;;;19.70;;
9940;SDS011;5009;50.656;7.188;2022-11-20T05:21:14;23.67;;;19.30;;
9940;SDS011;5009;50.656;7.188;2022-11-20T05:23:40;21.67;;;18.07;;
9940;SDS011;5009;50.656;7.188;2022-11-20T05:26:07;22.73;;;18.77;;
9940;SDS011;5009;50.656;7.188;2022-11-20T05:28:36;22.03;;;18.77;;
9940;SDS011;5009;50.656;7.188;2022-11-20T05:31:09;22.87;;;18.23;;
9940;SDS011;5009;50.656;7.188;2022-11-20T05:33:36;20.90;;;18.23;;
9940;SDS011;5009;50.656;7.188;2022-11-20T05:36:05;21.63;;;18.17;;
9940;SDS011;5009;50.656;7.188;2022-11-20T05:38:31;24.80;;;19.60;;
9940;SDS011;5009;50.656;7.188;2022-11-20T05:41:30;22.47;;;18.97;;
9940;SDS011;5009;50.656;7.188;2022-11-20T05:43:49;22.40;;;18.70;;
9940;SDS011;5009;50.656;7.188;2022-11-20T05:46:16;22.63;;;18.53;;
9940;SDS011;5009;50.656;7.188;2022-11-20T05:48:44;22.53;;;18.57;;
9940;SDS011;5009;50.656;7.188;2022-11-20T05:51:11;21.47;;;17.70;;
9940;SDS011;5009;50.656;7.188;2022-11-20T05:53:39;20.67;;;17.73;;
9940;SDS011;5009;50.656;7.188;2022-11-20T05:56:06;22.63;;;19.43;;
9940;SDS011;5009;50.656;7.188;2022-11-20T05:58:34;21.47;;;17.83;;
9940;SDS011;5009;50.656;7.188;2022-11-20T06:03:40;23.40;;;18.93;;
9940;SDS011;5009;50.656;7.188;2022-11-20T06:06:12;23.77;;;19.43;;
9940;SDS011;5009;50.656;7.188;2022-11-20T06:08:38;23.33;;;18.77;;
9940;SDS011;5009;50.656;7.188;2022-11-20T06:11:08;22.47;;;20.00;;
9940;SDS011;5009;50.656;7.188;2022-11-20T06:13:35;25.17;;;19.60;;
9940;SDS011;5009;50.656;7.188;2022-11-20T06:16:01;23.50;;;19.70;;
9940;SDS011;5009;50.656;7.188;2022-11-20T06:18:27;26.40;;;19.90;;
9940;SDS011;5009;50.656;7.188;2022-11-20T06:21:04;27.87;;;21.30;;
9940;SDS011;5009;50.656;7.188;2022-11-20T06:23:37;23.97;;;19.80;;
9940;SDS011;5009;50.656;7.188;2022-11-20T06:26:05;24.40;;;19.73;;
9940;SDS011;5009;50.656;7.188;2022-11-20T06:28:35;26.80;;;20.53;;
9940;SDS011;5009;50.656;7.188;2022-11-20T06:31:01;23.23;;;20.27;;
9940;SDS011;5009;50.656;7.188;2022-11-20T06:35:17;25.50;;;19.37;;
9940;SDS011;5009;50.656;7.188;2022-11-20T06:37:43;26.83;;;20.83;;
9940;SDS011;5009;50.656;7.188;2022-11-20T06:40:09;25.00;;;20.17;;
9940;SDS011;5009;50.656;7.188;2022-11-20T06:42:35;25.90;;;20.60;;
9940;SDS011;5009;50.656;7.188;2022-11-20T06:45:00;30.10;;;21.77;;
9940;SDS011;5009;50.656;7.188;2022-11-20T06:47:26;27.83;;;20.83;;
9940;SDS011;5009;50.656;7.188;2022-11-20T06:49:51;28.17;;;21.37;;
9940;SDS011;5009;50.656;7.188;2022-11-20T06:52:17;25.47;;;20.50;;
9940;SDS011;5009;50.656;7.188;2022-11-20T06:54:42;25.60;;;21.20;;
9940;SDS011;5009;50.656;7.188;2022-11-20T06:57:08;26.77;;;21.40;;
9940;SDS011;5009;50.656;7.188;2022-11-20T06:59:33;25.63;;;20.63;;
9940;SDS011;5009;50.656;7.188;2022-11-20T07:01:59;26.97;;;19.83;;
9940;SDS011;5009;50.656;7.188;2022-11-20T07:04:24;26.17;;;20.17;;
9940;SDS011;5009;50.656;7.188;2022-11-20T07:06:50;27.13;;;19.77;;
9940;SDS011;5009;50.656;7.188;2022-11-20T07:09:15;25.80;;;20.20;;
9940;SDS011;5009;50.656;7.188;2022-11-20T07:11:42;27.40;;;20.00;;
9940;SDS011;5009;50.656;7.188;2022-11-20T07:14:07;29.63;;;21.40;;
9940;SDS011;5009;50.656;7.188;2022-11-20T07:16:33;29.87;;;20.43;;
9940;SDS011;5009;50.656;7.188;2022-11-20T07:18:58;28.83;;;21.83;;
9940;SDS011;5009;50.656;7.188;2022-11-20T07:21:24;29.33;;;21.43;;
9940;SDS011;5009;50.656;7.188;2022-11-20T07:23:50;27.20;;;20.97;;
9940;SDS011;5009;50.656;7.188;2022-11-20T07:26:15;27.83;;;21.50;;
9940;SDS011;5009;50.656;7.188;2022-11-20T07:28:43;26.77;;;21.07;;
9940;SDS011;5009;50.656;7.188;2022-11-20T07:31:10;29.90;;;22.03;;
9940;SDS011;5009;50.656;7.188;2022-11-20T07:33:36;29.00;;;21.73;;
9940;SDS011;5009;50.656;7.188;2022-11-20T07:36:02;29.17;;;21.60;;
9940;SDS011;5009;50.656;7.188;2022-11-20T07:38:28;28.03;;;22.20;;
9940;SDS011;5009;50.656;7.188;2022-11-20T07:40:54;27.83;;;21.63;;
9940;SDS011;5009;50.656;7.188;2022-11-20T07:43:22;27.03;;;21.13;;
9940;SDS011;5009;50.656;7.188;2022-11-20T07:45:48;28.63;;;21.90;;
9940;SDS011;5009;50.656;7.188;2022-11-20T07:48:14;26.67;;;21.00;;
9940;SDS011;5009;50.656;7.188;2022-11-20T07:50:39;26.70;;;21.53;;
9940;SDS011;5009;50.656;7.188;2022-11-20T07:53:05;28.97;;;21.63;;
9940;SDS011;5009;50.656;7.188;2022-11-20T07:55:31;26.97;;;20.30;;
9940;SDS011;5009;50.656;7.188;2022-11-20T07:57:57;28.30;;;22.37;;
9940;SDS011;5009;50.656;7.188;2022-11-20T08:00:23;28.23;;;21.77;;
9940;SDS011;5009;50.656;7.188;2022-11-20T08:02:49;29.33;;;21.87;;
9940;SDS011;5009;50.656;7.188;2022-11-20T08:05:15;27.00;;;21.50;;
9940;SDS011;5009;50.656;7.188;2022-11-20T08:07:41;29.10;;;22.67;;
9940;SDS011;5009;50.656;7.188;2022-11-20T08:10:08;31.33;;;23.00;;
9940;SDS011;5009;50.656;7.188;2022-11-20T08:12:43;25.03;;;20.57;;
9940;SDS011;5009;50.656;7.188;2022-11-20T08:15:28;28.30;;;21.27;;
9940;SDS011;5009;50.656;7.188;2022-11-20T08:18:01;29.07;;;21.43;;
9940;SDS011;5009;50.656;7.188;2022-11-20T08:20:28;29.00;;;22.57;;
9940;SDS011;5009;50.656;7.188;2022-11-20T08:22:57;31.07;;;22.23;;
9940;SDS011;5009;50.656;7.188;2022-11-20T08:25:24;28.00;;;21.30;;
9940;SDS011;5009;50.656;7.188;2022-11-20T08:27:50;29.80;;;21.37;;
9940;SDS011;5009;50.656;7.188;2022-11-20T08:30:16;27.07;;;21.30;;
9940;SDS011;5009;50.656;7.188;2022-11-20T08:32:41;29.30;;;21.80;;
9940;SDS011;5009;50.656;7.188;2022-11-20T08:35:07;28.53;;;22.17;;
9940;SDS011;5009;50.656;7.188;2022-11-20T08:37:33;27.93;;;22.30;;
9940;SDS011;5009;50.656;7.188;2022-11-20T08:39:59;26.57;;;21.40;;
9940;SDS011;5009;50.656;7.188;2022-11-20T08:42:24;26.60;;;21.87;;
9940;SDS011;5009;50.656;7.188;2022-11-20T08:44:50;26.80;;;21.40;;
9940;SDS011;5009;50.656;7.188;2022-11-20T08:47:15;30.50;;;22.63;;
9940;SDS011;5009;50.656;7.188;2022-11-20T08:49:41;26.77;;;21.67;;
9940;SDS011;5009;50.656;7.188;2022-11-20T08:52:06;29.27;;;22.07;;
9940;SDS011;5009;50.656;7.188;2022-11-20T08:54:32;27.57;;;21.50;;
9940;SDS011;5009;50.656;7.188;2022-11-20T08:56:57;30.40;;;21.73;;
9940;SDS011;5009;50.656;7.188;2022-11-20T08:59:23;29.97;;;23.13;;
9940;SDS011;5009;50.656;7.188;2022-11-20T09:01:48;28.90;;;22.87;;
9940;SDS011;5009;50.656;7.188;2022-11-20T09:04:15;31.27;;;23.73;;
9940;SDS011;5009;50.656;7.188;2022-11-20T09:06:40;29.90;;;22.40;;
9940;SDS011;5009;50.656;7.188;2022-11-20T09:09:06;26.97;;;22.90;;
9940;SDS011;5009;50.656;7.188;2022-11-20T09:11:31;29.80;;;22.67;;
9940;SDS011;5009;50.656;7.188;2022-11-20T09:13:57;30.97;;;23.60;;
9940;SDS011;5009;50.656;7.188;2022-11-20T09:16:23;28.50;;;22.23;;
9940;SDS011;5009;50.656;7.188;2022-11-20T09:18:49;29.40;;;22.90;;
9940;SDS011;5009;50.656;7.188;2022-11-20T09:21:15;32.33;;;22.83;;
9940;SDS011;5009;50.656;7.188;2022-11-20T09:23:41;30.57;;;22.70;;
9940;SDS011;5009;50.656;7.188;2022-11-20T09:26:11;29.93;;;23.83;;
9940;SDS011;5009;50.656;7.188;2022-11-20T09:28:37;29.70;;;23.00;;
9940;SDS011;5009;50.656;7.188;2022-11-20T09:31:13;27.53;;;22.00;;
9940;SDS011;5009;50.656;7.188;2022-11-20T09:33:46;28.30;;;21.67;;
9940;SDS011;5009;50.656;7.188;2022-11-20T09:36:12;28.43;;;22.43;;
9940;SDS011;5009;50.656;7.188;2022-11-20T09:38:37;27.37;;;20.97;;
9940;SDS011;5009;50.656;7.188;2022-11-20T09:41:04;24.90;;;19.87;;
9940;SDS011;5009;50.656;7.188;2022-11-20T09:44:06;25.20;;;20.80;;
9940;SDS011;5009;50.656;7.188;2022-11-20T09:46:49;24.33;;;19.73;;
9940;SDS011;5009;50.656;7.188;2022-11-20T09:52:22;33.23;;;22.63;;
9940;SDS011;5009;50.656;7.188;2022-11-20T09:54:57;29.67;;;23.47;;
9940;SDS011;5009;50.656;7.188;2022-11-20T09:57:29;28.97;;;22.43;;
9940;SDS011;5009;50.656;7.188;2022-11-20T10:00:02;28.03;;;22.17;;
9940;SDS011;5009;50.656;7.188;2022-11-20T10:02:32;27.30;;;21.37;;
9940;SDS011;5009;50.656;7.188;2022-11-20T10:13:25;25.97;;;20.40;;
9940;SDS011;5009;50.656;7.188;2022-11-20T10:23:58;24.23;;;20.00;;
9940;SDS011;5009;50.656;7.188;2022-11-20T10:31:41;25.57;;;20.00;;
9940;SDS011;5009;50.656;7.188;2022-11-20T10:37:00;22.80;;;17.77;;
9940;SDS011;5009;50.656;7.188;2022-11-20T10:39:32;22.53;;;17.70;;
9940;SDS011;5009;50.656;7.188;2022-11-20T10:42:08;22.60;;;18.10;;
9940;SDS011;5009;50.656;7.188;2022-11-20T10:44:39;24.37;;;18.80;;
9940;SDS011;5009;50.656;7.188;2022-11-20T10:47:27;25.00;;;19.17;;
9940;SDS011;5009;50.656;7.188;2022-11-20T10:49:56;24.37;;;19.13;;
9940;SDS011;5009;50.656;7.188;2022-11-20T10:52:32;22.53;;;17.80;;
9940;SDS011;5009;50.656;7.188;2022-11-20T10:55:12;26.47;;;18.63;;
9940;SDS011;5009;50.656;7.188;2022-11-20T11:00:17;24.43;;;18.43;;
9940;SDS011;5009;50.656;7.188;2022-11-20T11:02:47;22.70;;;17.87;;
9940;SDS011;5009;50.656;7.188;2022-11-20T11:07:45;23.80;;;17.53;;
9940;SDS011;5009;50.656;7.188;2022-11-20T11:10:16;22.20;;;18.23;;
9940;SDS011;5009;50.656;7.188;2022-11-20T11:12:45;20.73;;;17.13;;
9940;SDS011;5009;50.656;7.188;2022-11-20T11:15:14;21.40;;;16.20;;
9940;SDS011;5009;50.656;7.188;2022-11-20T11:17:54;21.27;;;17.67;;
9940;SDS011;5009;50.656;7.188;2022-11-20T11:20:24;25.63;;;17.43;;
9940;SDS011;5009;50.656;7.188;2022-11-20T11:25:21;18.30;;;15.93;;
9940;SDS011;5009;50.656;7.188;2022-11-20T11:28:04;21.83;;;16.63;;
9940;SDS011;5009;50.656;7.188;2022-11-20T11:30:49;21.00;;;16.10;;
9940;SDS011;5009;50.656;7.188;2022-11-20T11:33:19;22.60;;;16.67;;
9940;SDS011;5009;50.656;7.188;2022-11-20T11:35:50;21.17;;;17.33;;
9940;SDS011;5009;50.656;7.188;2022-11-20T11:38:26;21.80;;;17.17;;
9940;SDS011;5009;50.656;7.188;2022-11-20T11:41:03;20.67;;;16.07;;
9940;SDS011;5009;50.656;7.188;2022-11-20T11:43:32;24.87;;;18.43;;
9940;SDS011;5009;50.656;7.188;2022-11-20T11:54:19;23.10;;;17.40;;
9940;SDS011;5009;50.656;7.188;2022-11-20T11:56:53;21.90;;;17.37;;
9940;SDS011;5009;50.656;7.188;2022-11-20T12:02:31;20.60;;;16.77;;
9940;SDS011;5009;50.656;7.188;2022-11-20T12:05:02;21.77;;;17.57;;
9940;SDS011;5009;50.656;7.188;2022-11-20T12:10:37;19.60;;;16.93;;
9940;SDS011;5009;50.656;7.188;2022-11-20T12:15:44;21.63;;;17.17;;
9940;SDS011;5009;50.656;7.188;2022-11-20T12:18:14;20.07;;;15.97;;
9940;SDS011;5009;50.656;7.188;2022-11-20T12:20:45;21.10;;;16.43;;
9940;SDS011;5009;50.656;7.188;2022-11-20T12:26:22;17.97;;;15.20;;
9940;SDS011;5009;50.656;7.188;2022-11-20T12:29:24;22.30;;;16.37;;
9940;SDS011;5009;50.656;7.188;2022-11-20T12:37:37;20.77;;;16.47;;
9940;SDS011;5009;50.656;7.188;2022-11-20T12:48:26;18.47;;;15.67;;
9940;SDS011;5009;50.656;7.188;2022-11-20T12:56:55;19.00;;;15.10;;
9940;SDS011;5009;50.656;7.188;2022-11-20T12:59:49;17.20;;;14.97;;
9940;SDS011;5009;50.656;7.188;2022-11-20T13:08:55;18.30;;;15.63;;
9940;SDS011;5009;50.656;7.188;2022-11-20T13:13:42;18.63;;;15.13;;
9940;SDS011;5009;50.656;7.188;2022-11-20T13:19:09;24.13;;;21.57;;
9940;SDS011;5009;50.656;7.188;2022-11-20T13:21:40;58.63;;;52.50;;
9940;SDS011;5009;50.656;7.188;2022-11-20T13:24:29;27.10;;;24.20;;
9940;SDS011;5009;50.656;7.188;2022-11-20T13:29:37;16.30;;;14.50;;
9940;SDS011;5009;50.656;7.188;2022-11-20T13:35:00;18.90;;;15.77;;
9940;SDS011;5009;50.656;7.188;2022-11-20T13:37:34;18.90;;;15.73;;
9940;SDS011;5009;50.656;7.188;2022-11-20T13:42:36;18.03;;;16.13;;
9940;SDS011;5009;50.656;7.188;2022-11-20T13:45:28;18.17;;;15.33;;
9940;SDS011;5009;50.656;7.188;2022-11-20T13:47:56;16.87;;;15.07;;
9940;SDS011;5009;50.656;7.188;2022-11-20T13:50:45;18.07;;;14.63;;
9940;SDS011;5009;50.656;7.188;2022-11-20T13:53:29;17.70;;;15.07;;
9940;SDS011;5009;50.656;7.188;2022-11-20T13:56:18;18.03;;;15.47;;
9940;SDS011;5009;50.656;7.188;2022-11-20T14:01:32;18.03;;;14.83;;
9940;SDS011;5009;50.656;7.188;2022-11-20T14:03:59;17.00;;;14.43;;
9940;SDS011;5009;50.656;7.188;2022-11-20T14:06:34;16.40;;;14.60;;
9940;SDS011;5009;50.656;7.188;2022-11-20T14:09:10;18.83;;;15.10;;
9940;SDS011;5009;50.656;7.188;2022-11-20T14:11:45;16.90;;;14.37;;
9940;SDS011;5009;50.656;7.188;2022-11-20T14:14:19;19.70;;;15.67;;
9940;SDS011;5009;50.656;7.188;2022-11-20T14:16:46;16.60;;;14.17;;
9940;SDS011;5009;50.656;7.188;2022-11-20T14:19:23;18.93;;;14.77;;
9940;SDS011;5009;50.656;7.188;2022-11-20T14:22:08;16.63;;;13.77;;
9940;SDS011;5009;50.656;7.188;2022-11-20T14:24:34;15.57;;;13.20;;
9940;SDS011;5009;50.656;7.188;2022-11-20T14:27:00;16.70;;;13.63;;
9940;SDS011;5009;50.656;7.188;2022-11-20T14:29:27;14.10;;;12.60;;
9940;SDS011;5009;50.656;7.188;2022-11-20T14:31:58;17.57;;;13.97;;
9940;SDS011;5009;50.656;7.188;2022-11-20T14:34:30;15.20;;;13.30;;
9940;SDS011;5009;50.656;7.188;2022-11-20T14:36:59;15.47;;;13.13;;
9940;SDS011;5009;50.656;7.188;2022-11-20T14:39:34;15.93;;;12.97;;
9940;SDS011;5009;50.656;7.188;2022-11-20T14:42:01;15.33;;;12.73;;
9940;SDS011;5009;50.656;7.188;2022-11-20T14:44:28;18.37;;;15.07;;
9940;SDS011;5009;50.656;7.188;2022-11-20T14:46:56;28.03;;;25.03;;
9940;SDS011;5009;50.656;7.188;2022-11-20T14:49:22;17.43;;;15.57;;
9940;SDS011;5009;50.656;7.188;2022-11-20T14:51:58;15.50;;;13.87;;
9940;SDS011;5009;50.656;7.188;2022-11-20T14:54:25;13.50;;;11.87;;
9940;SDS011;5009;50.656;7.188;2022-11-20T14:59:26;15.77;;;13.10;;
9940;SDS011;5009;50.656;7.188;2022-11-20T15:01:54;16.53;;;13.43;;
9940;SDS011;5009;50.656;7.188;2022-11-20T15:04:26;16.40;;;12.77;;
9940;SDS011;5009;50.656;7.188;2022-11-20T15:06:53;13.97;;;12.13;;
9940;SDS011;5009;50.656;7.188;2022-11-20T15:09:20;15.50;;;13.00;;
9940;SDS011;5009;50.656;7.188;2022-11-20T15:11:57;15.13;;;11.90;;
9940;SDS011;5009;50.656;7.188;2022-11-20T15:14:25;15.13;;;11.93;;
9940;SDS011;5009;50.656;7.188;2022-11-20T15:16:52;14.73;;;11.53;;
9940;SDS011;5009;50.656;7.188;2022-11-20T15:19:19;14.23;;;11.87;;
9940;SDS011;5009;50.656;7.188;2022-11-20T15:21:46;12.67;;;10.40;;
9940;SDS011;5009;50.656;7.188;2022-11-20T15:24:12;11.73;;;10.50;;
9940;SDS011;5009;50.656;7.188;2022-11-20T15:26:38;12.43;;;10.73;;
9940;SDS011;5009;50.656;7.188;2022-11-20T15:29:10;13.57;;;11.57;;
9940;SDS011;5009;50.656;7.188;2022-11-20T15:31:37;13.67;;;11.43;;
9940;SDS011;5009;50.656;7.188;2022-11-20T15:34:13;13.13;;;10.87;;
9940;SDS011;5009;50.656;7.188;2022-11-20T15:36:40;14.20;;;11.50;;
9940;SDS011;5009;50.656;7.188;2022-11-20T15:39:06;17.20;;;12.10;;
9940;SDS011;5009;50.656;7.188;2022-11-20T15:41:33;12.37;;;10.83;;
9940;SDS011;5009;50.656;7.188;2022-11-20T15:43:59;14.47;;;12.33;;
9940;SDS011;5009;50.656;7.188;2022-11-20T15:46:28;16.53;;;13.57;;
9940;SDS011;5009;50.656;7.188;2022-11-20T15:48:58;17.17;;;13.97;;
9940;SDS011;5009;50.656;7.188;2022-11-20T15:51:29;19.40;;;14.97;;
9940;SDS011;5009;50.656;7.188;2022-11-20T15:54:21;20.57;;;15.83;;
9940;SDS011;5009;50.656;7.188;2022-11-20T15:56:47;26.77;;;17.90;;
9940;SDS011;5009;50.656;7.188;2022-11-20T15:59:19;22.33;;;17.77;;
9940;SDS011;5009;50.656;7.188;2022-11-20T16:01:44;27.83;;;18.27;;
9940;SDS011;5009;50.656;7.188;2022-11-20T16:04:11;28.53;;;20.73;;
9940;SDS011;5009;50.656;7.188;2022-11-20T16:06:41;28.17;;;19.83;;
9940;SDS011;5009;50.656;7.188;2022-11-20T16:09:07;24.80;;;19.33;;
9940;SDS011;5009;50.656;7.188;2022-11-20T16:11:33;34.70;;;25.50;;
9940;SDS011;5009;50.656;7.188;2022-11-20T16:14:01;22.83;;;17.33;;
9940;SDS011;5009;50.656;7.188;2022-11-20T16:16:46;22.90;;;17.33;;
9940;SDS011;5009;50.656;7.188;2022-11-20T16:19:12;21.33;;;15.97;;
9940;SDS011;5009;50.656;7.188;2022-11-20T16:21:38;17.40;;;13.70;;
9940;SDS011;5009;50.656;7.188;2022-11-20T16:24:06;15.20;;;12.43;;
9940;SDS011;5009;50.656;7.188;2022-11-20T16:26:34;13.87;;;12.33;;
9940;SDS011;5009;50.656;7.188;2022-11-20T16:29:00;15.27;;;11.67;;
9940;SDS011;5009;50.656;7.188;2022-11-20T16:31:27;15.00;;;12.40;;
9940;SDS011;5009;50.656;7.188;2022-11-20T16:33:57;14.50;;;11.83;;
9940;SDS011;5009;50.656;7.188;2022-11-20T16:36:24;14.93;;;12.60;;
9940;SDS011;5009;50.656;7.188;2022-11-20T16:38:56;14.83;;;12.13;;
9940;SDS011;5009;50.656;7.188;2022-11-20T16:41:26;15.83;;;11.73;;
9940;SDS011;5009;50.656;7.188;2022-11-20T16:43:53;10.83;;;9.73;;
9940;SDS011;5009;50.656;7.188;2022-11-20T16:46:24;12.60;;;7.97;;
9940;SDS011;5009;50.656;7.188;2022-11-20T16:48:55;8.77;;;7.67;;
9940;SDS011;5009;50.656;7.188;2022-11-20T16:51:22;9.67;;;7.80;;
9940;SDS011;5009;50.656;7.188;2022-11-20T16:53:49;7.73;;;6.80;;
9940;SDS011;5009;50.656;7.188;2022-11-20T16:56:15;10.97;;;7.50;;
9940;SDS011;5009;50.656;7.188;2022-11-20T16:58:43;9.50;;;6.33;;
9940;SDS011;5009;50.656;7.188;2022-11-20T17:01:10;9.13;;;6.27;;
9940;SDS011;5009;50.656;7.188;2022-11-20T17:03:38;6.27;;;5.00;;
9940;SDS011;5009;50.656;7.188;2022-11-20T17:08:37;8.80;;;5.20;;
9940;SDS011;5009;50.656;7.188;2022-11-20T17:11:03;5.67;;;4.83;;
9940;SDS011;5009;50.656;7.188;2022-11-20T17:13:33;6.23;;;4.97;;
9940;SDS011;5009;50.656;7.188;2022-11-20T17:16:04;12.20;;;5.77;;
9940;SDS011;5009;50.656;7.188;2022-11-20T17:18:34;8.20;;;5.70;;
9940;SDS011;5009;50.656;7.188;2022-11-20T17:21:00;7.00;;;5.90;;
9940;SDS011;5009;50.656;7.188;2022-11-20T17:23:33;6.17;;;5.30;;
9940;SDS011;5009;50.656;7.188;2022-11-20T17:26:03;8.80;;;5.20;;
9940;SDS011;5009;50.656;7.188;2022-11-20T17:28:34;7.63;;;5.90;;
9940;SDS011;5009;50.656;7.188;2022-11-20T17:31:01;14.67;;;10.23;;
9940;SDS011;5009;50.656;7.188;2022-11-20T17:33:30;28.17;;;18.03;;
9940;SDS011;5009;50.656;7.188;2022-11-20T17:35:55;56.43;;;33.00;;
9940;SDS011;5009;50.656;7.188;2022-11-20T17:38:21;22.37;;;16.57;;
9940;SDS011;5009;50.656;7.188;2022-11-20T17:40:47;7.93;;;6.87;;
9940;SDS011;5009;50.656;7.188;2022-11-20T17:43:12;6.80;;;5.20;;
9940;SDS011;5009;50.656;7.188;2022-11-20T17:45:38;6.83;;;6.13;;
9940;SDS011;5009;50.656;7.188;2022-11-20T17:48:04;6.50;;;5.40;;
9940;SDS011;5009;50.656;7.188;2022-11-20T17:50:29;8.13;;;5.57;;
9940;SDS011;5009;50.656;7.188;2022-11-20T17:52:55;8.57;;;5.80;;
9940;SDS011;5009;50.656;7.188;2022-11-20T17:55:20;8.10;;;7.00;;
9940;SDS011;5009;50.656;7.188;2022-11-20T17:57:46;8.70;;;6.77;;
9940;SDS011;5009;50.656;7.188;2022-11-20T18:00:20;7.77;;;6.20;;
9940;SDS011;5009;50.656;7.188;2022-11-20T18:02:46;8.27;;;6.10;;
9940;SDS011;5009;50.656;7.188;2022-11-20T18:05:12;7.57;;;5.77;;
9940;SDS011;5009;50.656;7.188;2022-11-20T18:07:38;6.40;;;5.80;;
9940;SDS011;5009;50.656;7.188;2022-11-20T18:10:04;8.47;;;6.13;;
9940;SDS011;5009;50.656;7.188;2022-11-20T18:12:30;6.53;;;5.50;;
9940;SDS011;5009;50.656;7.188;2022-11-20T18:14:56;6.70;;;5.37;;
9940;SDS011;5009;50.656;7.188;2022-11-20T18:17:21;5.80;;;5.20;;
9940;SDS011;5009;50.656;7.188;2022-11-20T18:19:47;4.10;;;3.73;;
9940;SDS011;5009;50.656;7.188;2022-11-20T18:22:15;4.63;;;4.13;;
9940;SDS011;5009;50.656;7.188;2022-11-20T18:24:42;6.20;;;4.00;;
9940;SDS011;5009;50.656;7.188;2022-11-20T18:27:11;4.47;;;3.90;;
9940;SDS011;5009;50.656;7.188;2022-11-20T18:29:39;3.53;;;3.23;;
9940;SDS011;5009;50.656;7.188;2022-11-20T18:32:05;4.23;;;3.27;;
9940;SDS011;5009;50.656;7.188;2022-11-20T18:34:30;3.20;;;2.90;;
9940;SDS011;5009;50.656;7.188;2022-11-20T18:36:56;3.07;;;2.67;;
9940;SDS011;5009;50.656;7.188;2022-11-20T18:39:22;2.87;;;2.67;;
9940;SDS011;5009;50.656;7.188;2022-11-20T18:41:48;2.80;;;2.50;;
9940;SDS011;5009;50.656;7.188;2022-11-20T18:44:32;3.57;;;2.90;;
9940;SDS011;5009;50.656;7.188;2022-11-20T18:47:16;3.43;;;2.27;;
9940;SDS011;5009;50.656;7.188;2022-11-20T18:49:55;2.80;;;2.40;;
9940;SDS011;5009;50.656;7.188;2022-11-20T18:52:32;3.07;;;2.60;;
9940;SDS011;5009;50.656;7.188;2022-11-20T18:54:59;2.30;;;2.10;;
9940;SDS011;5009;50.656;7.188;2022-11-20T18:57:27;3.23;;;2.50;;
9940;SDS011;5009;50.656;7.188;2022-11-20T18:59:53;2.80;;;2.40;;
9940;SDS011;5009;50.656;7.188;2022-11-20T19:02:20;2.30;;;2.10;;
9940;SDS011;5009;50.656;7.188;2022-11-20T19:04:46;2.00;;;1.90;;
9940;SDS011;5009;50.656;7.188;2022-11-20T19:07:12;1.97;;;1.87;;
9940;SDS011;5009;50.656;7.188;2022-11-20T19:09:38;1.90;;;1.80;;
9940;SDS011;5009;50.656;7.188;2022-11-20T19:12:08;2.20;;;2.00;;
9940;SDS011;5009;50.656;7.188;2022-11-20T19:14:35;2.33;;;2.13;;
9940;SDS011;5009;50.656;7.188;2022-11-20T19:17:01;2.40;;;2.20;;
9940;SDS011;5009;50.656;7.188;2022-11-20T19:19:27;2.43;;;2.03;;
9940;SDS011;5009;50.656;7.188;2022-11-20T19:21:53;2.57;;;2.37;;
9940;SDS011;5009;50.656;7.188;2022-11-20T19:24:19;2.97;;;2.67;;
9940;SDS011;5009;50.656;7.188;2022-11-20T19:26:45;5.07;;;3.50;;
9940;SDS011;5009;50.656;7.188;2022-11-20T19:29:11;4.70;;;3.97;;
9940;SDS011;5009;50.656;7.188;2022-11-20T19:31:39;6.50;;;5.03;;
9940;SDS011;5009;50.656;7.188;2022-11-20T19:34:05;7.27;;;5.27;;
9940;SDS011;5009;50.656;7.188;2022-11-20T19:36:32;8.93;;;5.20;;
9940;SDS011;5009;50.656;7.188;2022-11-20T19:38:59;8.57;;;5.37;;
9940;SDS011;5009;50.656;7.188;2022-11-20T19:41:29;8.93;;;5.80;;
9940;SDS011;5009;50.656;7.188;2022-11-20T19:46:29;10.20;;;7.53;;
9940;SDS011;5009;50.656;7.188;2022-11-20T19:48:56;8.43;;;6.30;;
9940;SDS011;5009;50.656;7.188;2022-11-20T19:51:26;10.97;;;7.30;;
9940;SDS011;5009;50.656;7.188;2022-11-20T19:53:56;9.73;;;6.47;;
9940;SDS011;5009;50.656;7.188;2022-11-20T19:56:22;8.17;;;5.53;;
9940;SDS011;5009;50.656;7.188;2022-11-20T19:58:49;7.93;;;5.23;;
9940;SDS011;5009;50.656;7.188;2022-11-20T20:01:17;6.73;;;5.00;;
9940;SDS011;5009;50.656;7.188;2022-11-20T20:03:45;8.20;;;5.03;;
9940;SDS011;5009;50.656;7.188;2022-11-20T20:06:22;6.23;;;5.17;;